Time;durP1;ratioP1;P1;durP2;ratioP2;P2;SDS_P1;SDS_P2;PMS_P1;PMS_P2;Temp;Humidity;BMP_temperature;BMP_pressure;BME280_temperature;BME280_humidity;BME280_pressure;Samples;Min_cycle;Max_cycle;Signal;HPM_P1;HPM_P2
2023/02/24 00:01:07;;;;;;;91.47;41.67;;;;;;;;;;5043762;28;20026;-75
2023/02/24 00:03:33;;;;;;;74.53;36.27;;;;;;;;;;5038365;28;20185;-76
2023/02/24 00:06:04;;;;;;;63.60;30.23;;;;;;;;;;5041623;28;20098;-76
2023/02/24 00:08:30;;;;;;;61.27;28.03;;;;;;;;;;5057843;28;20032;-76
2023/02/24 00:10:56;;;;;;;53.70;25.47;;;;;;;;;;5039102;28;20029;-76
2023/02/24 00:13:22;;;;;;;44.90;19.13;;;;;;;;;;5048928;28;20365;-75
2023/02/24 00:15:59;;;;;;;42.23;20.07;;;;;;;;;;5045504;28;20028;-76
2023/02/24 00:18:25;;;;;;;34.30;15.30;;;;;;;;;;5042874;28;20120;-76
2023/02/24 00:20:55;;;;;;;34.83;13.00;;;;;;;;;;5048775;28;20071;-76
2023/02/24 00:23:22;;;;;;;24.90;10.43;;;;;;;;;;5055242;28;20116;-75
2023/02/24 00:25:48;;;;;;;27.70;9.70;;;;;;;;;;5057962;28;20052;-75
2023/02/24 00:28:14;;;;;;;31.23;10.57;;;;;;;;;;5042557;28;20148;-75
2023/02/24 00:30:43;;;;;;;30.63;11.17;;;;;;;;;;5041319;28;20043;-75
2023/02/24 00:33:11;;;;;;;26.07;11.23;;;;;;;;;;5048287;28;20041;-75
2023/02/24 00:35:37;;;;;;;31.87;10.87;;;;;;;;;;5057596;28;20039;-75
2023/02/24 00:38:03;;;;;;;30.60;13.30;;;;;;;;;;5057427;28;20025;-76
2023/02/24 00:40:29;;;;;;;40.77;14.13;;;;;;;;;;5040158;28;20040;-75
2023/02/24 00:42:55;;;;;;;37.23;14.20;;;;;;;;;;5056328;28;20040;-75
2023/02/24 00:45:21;;;;;;;37.47;14.77;;;;;;;;;;5042616;28;20032;-76
2023/02/24 00:47:47;;;;;;;34.77;15.03;;;;;;;;;;5058067;28;20021;-75
2023/02/24 00:50:13;;;;;;;38.93;14.93;;;;;;;;;;5057191;28;20955;-76
2023/02/24 00:52:39;;;;;;;29.90;14.27;;;;;;;;;;5040783;28;20031;-76
2023/02/24 00:55:13;;;;;;;27.87;13.23;;;;;;;;;;5048870;28;20043;-75
2023/02/24 00:57:40;;;;;;;36.63;14.70;;;;;;;;;;5056824;28;20036;-76
2023/02/24 01:00:11;;;;;;;40.37;13.10;;;;;;;;;;5049449;28;20048;-75
2023/02/24 01:02:37;;;;;;;38.58;14.43;;;;;;;;;;5044143;28;20040;-75
2023/02/24 01:05:08;;;;;;;39.60;13.90;;;;;;;;;;5056934;28;20160;-76
2023/02/24 01:07:34;;;;;;;30.60;12.00;;;;;;;;;;5055745;28;20028;-75
2023/02/24 01:10:00;;;;;;;33.83;11.87;;;;;;;;;;5038849;28;20032;-76
2023/02/24 01:12:48;;;;;;;37.73;12.80;;;;;;;;;;5057780;28;20111;-76
2023/02/24 01:15:15;;;;;;;35.40;13.63;;;;;;;;;;5049814;28;20037;-76
2023/02/24 01:17:43;;;;;;;54.40;22.10;;;;;;;;;;5042239;28;20032;-76
2023/02/24 01:20:18;;;;;;;61.50;26.63;;;;;;;;;;5044860;28;20048;-75
2023/02/24 01:22:52;;;;;;;65.43;27.33;;;;;;;;;;5047986;28;20048;-76
2023/02/24 01:25:19;;;;;;;75.90;27.90;;;;;;;;;;5055931;28;20512;-76
2023/02/24 01:27:45;;;;;;;68.63;29.97;;;;;;;;;;5057169;28;20036;-75
2023/02/24 01:30:14;;;;;;;68.77;30.13;;;;;;;;;;5049728;28;21546;-76
2023/02/24 01:32:45;;;;;;;62.27;29.53;;;;;;;;;;5060020;28;20068;-75
2023/02/24 01:35:11;;;;;;;85.00;32.30;;;;;;;;;;5060040;28;20043;-76
2023/02/24 01:37:37;;;;;;;78.73;31.93;;;;;;;;;;5042368;28;20108;-74
2023/02/24 01:40:10;;;;;;;81.73;32.60;;;;;;;;;;5054912;28;20039;-76
2023/02/24 01:42:37;;;;;;;78.80;33.10;;;;;;;;;;5041314;28;20037;-76
2023/02/24 01:45:11;;;;;;;80.07;33.03;;;;;;;;;;5057111;28;20029;-75
2023/02/24 01:47:37;;;;;;;79.63;31.60;;;;;;;;;;5054480;28;20479;-75
2023/02/24 01:50:04;;;;;;;71.20;28.77;;;;;;;;;;5056539;28;20041;-76
2023/02/24 01:52:33;;;;;;;74.50;30.67;;;;;;;;;;5042894;28;20040;-76
2023/02/24 01:55:02;;;;;;;78.53;30.67;;;;;;;;;;5038887;28;20032;-76
2023/02/24 01:57:30;;;;;;;79.17;29.50;;;;;;;;;;5058585;28;20028;-76
2023/02/24 02:00:08;;;;;;;75.07;29.60;;;;;;;;;;5037885;28;20036;-76
2023/02/24 02:02:34;;;;;;;87.93;33.77;;;;;;;;;;5046587;28;20063;-76
2023/02/24 02:05:04;;;;;;;67.47;29.43;;;;;;;;;;5038770;28;20537;-76
2023/02/24 02:07:30;;;;;;;80.07;30.50;;;;;;;;;;5056157;28;20032;-76
2023/02/24 02:10:02;;;;;;;70.60;31.30;;;;;;;;;;5048570;28;20358;-76
2023/02/24 02:12:30;;;;;;;73.28;28.70;;;;;;;;;;5056408;28;20038;-76
2023/02/24 02:14:59;;;;;;;72.10;33.70;;;;;;;;;;5042179;28;20032;-75
2023/02/24 02:17:29;;;;;;;75.97;29.17;;;;;;;;;;5056998;28;20715;-76
2023/02/24 02:19:55;;;;;;;75.30;29.97;;;;;;;;;;5054822;28;20033;-76
2023/02/24 02:22:25;;;;;;;80.40;30.90;;;;;;;;;;5037204;28;20786;-75
2023/02/24 02:24:54;;;;;;;76.93;29.33;;;;;;;;;;5039842;28;20373;-75
2023/02/24 02:27:39;;;;;;;81.73;30.33;;;;;;;;;;5053651;28;20393;-76
2023/02/24 02:30:23;;;;;;;82.83;28.17;;;;;;;;;;5036622;28;20028;-76
2023/02/24 02:33:01;;;;;;;84.77;28.93;;;;;;;;;;5054671;28;20029;-76
2023/02/24 02:35:47;;;;;;;75.70;26.63;;;;;;;;;;5056091;28;20777;-75
2023/02/24 02:38:24;;;;;;;79.97;30.33;;;;;;;;;;5055345;28;20082;-76
2023/02/24 02:40:56;;;;;;;87.13;30.70;;;;;;;;;;5040538;28;20032;-76
2023/02/24 02:43:28;;;;;;;81.43;30.15;;;;;;;;;;5044350;28;20033;-76
2023/02/24 02:46:02;;;;;;;78.20;27.83;;;;;;;;;;5045861;28;20479;-76
2023/02/24 02:48:35;;;;;;;79.13;29.63;;;;;;;;;;5048419;28;20574;-76
2023/02/24 02:51:06;;;;;;;74.22;29.30;;;;;;;;;;5074533;28;20105;-75
2023/02/24 02:53:38;;;;;;;76.57;29.93;;;;;;;;;;5067642;28;20349;-76
2023/02/24 02:56:10;;;;;;;85.17;29.37;;;;;;;;;;5067167;28;20036;-76
2023/02/24 02:58:38;;;;;;;70.57;25.88;;;;;;;;;;5048836;28;20044;-76
2023/02/24 03:01:06;;;;;;;95.50;29.10;;;;;;;;;;5074575;28;20016;-76
2023/02/24 03:03:44;;;;;;;105.27;29.17;;;;;;;;;;5051809;28;20610;-76
2023/02/24 03:06:14;;;;;;;69.37;25.03;;;;;;;;;;5046104;28;20369;-76
2023/02/24 03:08:43;;;;;;;74.93;27.07;;;;;;;;;;5070333;28;20029;-75
2023/02/24 03:11:12;;;;;;;80.90;24.47;;;;;;;;;;5064627;28;20020;-76
2023/02/24 03:13:41;;;;;;;66.83;20.80;;;;;;;;;;5073162;28;20035;-76
2023/02/24 03:16:10;;;;;;;82.00;23.50;;;;;;;;;;5072139;28;20024;-76
2023/02/24 03:18:39;;;;;;;68.60;17.23;;;;;;;;;;5055101;28;20040;-76
2023/02/24 03:21:11;;;;;;;72.80;18.00;;;;;;;;;;5056091;28;20032;-75
2023/02/24 03:23:39;;;;;;;51.13;15.05;;;;;;;;;;5053963;28;20033;-76
2023/02/24 03:26:16;;;;;;;54.50;16.07;;;;;;;;;;5055577;28;20032;-75
2023/02/24 03:28:47;;;;;;;62.43;17.53;;;;;;;;;;5055043;28;20758;-76
2023/02/24 03:31:18;;;;;;;56.63;16.90;;;;;;;;;;5076727;28;20089;-76
2023/02/24 03:33:59;;;;;;;53.57;15.50;;;;;;;;;;5075763;28;20040;-76
2023/02/24 03:36:25;;;;;;;52.57;15.30;;;;;;;;;;5069749;28;20116;-76
2023/02/24 03:38:51;;;;;;;55.50;15.57;;;;;;;;;;5065232;28;20020;-76
2023/02/24 03:41:18;;;;;;;57.50;15.47;;;;;;;;;;5051542;28;20028;-76
2023/02/24 03:43:45;;;;;;;60.37;14.17;;;;;;;;;;5072145;28;20052;-76
2023/02/24 03:46:13;;;;;;;66.07;17.30;;;;;;;;;;5052260;28;20024;-76
2023/02/24 03:48:43;;;;;;;54.57;17.67;;;;;;;;;;5061733;28;20031;-76
2023/02/24 03:51:14;;;;;;;50.60;16.27;;;;;;;;;;5059102;28;20361;-76
2023/02/24 03:53:40;;;;;;;61.33;17.57;;;;;;;;;;5059893;28;20025;-76
2023/02/24 03:56:25;;;;;;;47.30;17.83;;;;;;;;;;5062191;28;20044;-76
2023/02/24 03:59:07;;;;;;;47.67;17.03;;;;;;;;;;5068205;28;20085;-75
2023/02/24 04:01:43;;;;;;;51.67;16.10;;;;;;;;;;5051853;28;20093;-74
2023/02/24 04:04:17;;;;;;;43.27;15.03;;;;;;;;;;5065720;28;20040;-76
2023/02/24 04:06:43;;;;;;;46.33;16.60;;;;;;;;;;5065146;28;20037;-75
2023/02/24 04:09:16;;;;;;;52.57;15.43;;;;;;;;;;5058381;28;20033;-76
2023/02/24 04:12:08;;;;;;;54.97;15.47;;;;;;;;;;5052331;28;20024;-76
2023/02/24 04:14:38;;;;;;;48.63;12.50;;;;;;;;;;5055894;28;20035;-76
2023/02/24 04:17:28;;;;;;;49.57;13.53;;;;;;;;;;5072248;28;20024;-76
2023/02/24 04:19:58;;;;;;;40.30;11.20;;;;;;;;;;5058279;28;20048;-75
2023/02/24 04:22:26;;;;;;;50.90;11.20;;;;;;;;;;5058481;28;20029;-75
2023/02/24 04:24:55;;;;;;;37.77;8.37;;;;;;;;;;5058193;28;20849;-76
2023/02/24 04:27:22;;;;;;;40.13;9.13;;;;;;;;;;5055512;28;20040;-75
2023/02/24 04:29:52;;;;;;;37.93;7.50;;;;;;;;;;5057204;28;20115;-75
2023/02/24 04:32:21;;;;;;;43.13;9.23;;;;;;;;;;5042538;28;20074;-75
2023/02/24 04:34:47;;;;;;;40.50;7.80;;;;;;;;;;5058426;28;20036;-75
2023/02/24 04:37:13;;;;;;;36.33;7.27;;;;;;;;;;5039804;28;20029;-75
2023/02/24 04:39:39;;;;;;;32.60;7.13;;;;;;;;;;5057551;28;20033;-75
2023/02/24 04:42:05;;;;;;;28.70;6.47;;;;;;;;;;5057060;28;20048;-75
2023/02/24 04:44:31;;;;;;;41.50;6.50;;;;;;;;;;5041486;28;20433;-75
2023/02/24 04:46:59;;;;;;;34.10;6.50;;;;;;;;;;5057098;28;20024;-75
2023/02/24 04:49:25;;;;;;;25.40;5.00;;;;;;;;;;5057327;28;20028;-75
2023/02/24 04:51:56;;;;;;;32.10;5.83;;;;;;;;;;5059395;28;20047;-74
2023/02/24 04:54:23;;;;;;;34.17;4.83;;;;;;;;;;5057114;28;20029;-75
2023/02/24 04:56:49;;;;;;;36.67;5.97;;;;;;;;;;5040211;28;20033;-74
2023/02/24 04:59:19;;;;;;;26.60;5.80;;;;;;;;;;5041411;28;20033;-75
2023/02/24 05:01:45;;;;;;;26.70;4.67;;;;;;;;;;5060002;28;20029;-76
2023/02/24 05:04:12;;;;;;;31.30;6.20;;;;;;;;;;5056002;28;20025;-75
2023/02/24 05:06:42;;;;;;;26.20;5.67;;;;;;;;;;5058361;28;20060;-75
2023/02/24 05:09:15;;;;;;;21.53;5.57;;;;;;;;;;5039199;28;20091;-74
2023/02/24 05:11:42;;;;;;;32.37;5.77;;;;;;;;;;5056932;28;20037;-76
2023/02/24 05:14:13;;;;;;;39.00;7.90;;;;;;;;;;5054697;28;20643;-75
2023/02/24 05:16:39;;;;;;;32.77;6.27;;;;;;;;;;5054795;28;20042;-75
2023/02/24 05:21:50;;;;;;;35.43;6.03;;;;;;;;;;5055269;28;20128;-76
2023/02/24 05:24:16;;;;;;;35.73;5.97;;;;;;;;;;5040385;28;20044;-75
2023/02/24 05:26:42;;;;;;;38.13;6.33;;;;;;;;;;5042360;28;20029;-75
2023/02/24 05:29:08;;;;;;;26.07;5.27;;;;;;;;;;5057240;28;20529;-75
2023/02/24 05:31:35;;;;;;;30.10;5.33;;;;;;;;;;5045553;28;20037;-76
2023/02/24 05:34:02;;;;;;;20.67;5.13;;;;;;;;;;5057393;28;20028;-75
2023/02/24 05:36:30;;;;;;;38.40;5.90;;;;;;;;;;5056647;28;20078;-75
2023/02/24 05:38:57;;;;;;;28.50;4.97;;;;;;;;;;5042496;28;20028;-76
2023/02/24 05:41:31;;;;;;;30.00;5.93;;;;;;;;;;5041778;28;20128;-75
2023/02/24 05:43:57;;;;;;;22.93;3.70;;;;;;;;;;5056196;28;20032;-76
2023/02/24 05:46:28;;;;;;;28.00;5.60;;;;;;;;;;5056678;28;20123;-76
2023/02/24 05:48:57;;;;;;;34.63;5.47;;;;;;;;;;5057150;28;20040;-75
2023/02/24 05:51:23;;;;;;;22.73;6.93;;;;;;;;;;5038311;28;20062;-76
2023/02/24 05:53:54;;;;;;;21.43;4.83;;;;;;;;;;5057727;28;20090;-75
2023/02/24 05:56:20;;;;;;;36.77;5.70;;;;;;;;;;5056004;28;20114;-75
2023/02/24 05:58:46;;;;;;;26.37;5.50;;;;;;;;;;5043412;28;20031;-76
2023/02/24 06:01:18;;;;;;;34.50;6.10;;;;;;;;;;5057065;28;20346;-75
2023/02/24 06:03:47;;;;;;;32.00;5.47;;;;;;;;;;5055012;28;20032;-75
2023/02/24 06:06:14;;;;;;;25.57;5.87;;;;;;;;;;5047559;28;20086;-75
2023/02/24 06:08:48;;;;;;;21.97;4.97;;;;;;;;;;5037835;28;20891;-75
2023/02/24 06:11:16;;;;;;;29.03;5.60;;;;;;;;;;5060608;28;20408;-75
2023/02/24 06:13:48;;;;;;;29.47;4.03;;;;;;;;;;5055168;28;20362;-75
2023/02/24 06:16:17;;;;;;;29.45;4.93;;;;;;;;;;5041759;28;20033;-75
2023/02/24 06:18:46;;;;;;;19.83;4.10;;;;;;;;;;5045444;28;20044;-75
2023/02/24 06:21:13;;;;;;;27.80;4.53;;;;;;;;;;5037851;28;20041;-75
2023/02/24 06:23:39;;;;;;;17.47;3.80;;;;;;;;;;5053880;28;20025;-75
2023/02/24 06:26:11;;;;;;;30.70;4.67;;;;;;;;;;5055780;28;20036;-75
2023/02/24 06:28:38;;;;;;;38.28;3.88;;;;;;;;;;5044869;28;20086;-75
2023/02/24 06:31:05;;;;;;;24.97;4.53;;;;;;;;;;5037004;28;20047;-75
2023/02/24 06:33:32;;;;;;;24.50;4.20;;;;;;;;;;5054625;28;20029;-74
2023/02/24 06:35:59;;;;;;;25.37;4.07;;;;;;;;;;5057813;28;20029;-75
2023/02/24 06:38:25;;;;;;;27.30;6.33;;;;;;;;;;5040146;28;20044;-75
2023/02/24 06:40:56;;;;;;;17.43;4.20;;;;;;;;;;5037273;28;20025;-75
2023/02/24 06:43:22;;;;;;;27.30;4.60;;;;;;;;;;5052768;28;20041;-76
2023/02/24 06:45:49;;;;;;;22.60;5.03;;;;;;;;;;5054244;28;20349;-76
2023/02/24 06:48:14;;;;;;;26.57;5.33;;;;;;;;;;5040801;28;20342;-75
2023/02/24 06:50:42;;;;;;;22.43;4.70;;;;;;;;;;5038131;28;20098;-75
2023/02/24 06:53:15;;;;;;;23.83;4.53;;;;;;;;;;5055850;28;20037;-74
2023/02/24 06:55:50;;;;;;;29.93;4.53;;;;;;;;;;5055936;28;20029;-75
2023/02/24 06:58:18;;;;;;;19.00;4.53;;;;;;;;;;5054801;28;20033;-75
2023/02/24 07:00:55;;;;;;;25.40;4.37;;;;;;;;;;5040237;28;20473;-75
2023/02/24 07:03:37;;;;;;;22.53;4.53;;;;;;;;;;5053699;28;20055;-75
2023/02/24 07:06:19;;;;;;;17.67;4.30;;;;;;;;;;5052795;28;20036;-74
2023/02/24 07:08:45;;;;;;;38.80;4.07;;;;;;;;;;5054551;28;20457;-74
2023/02/24 07:11:12;;;;;;;22.77;5.30;;;;;;;;;;5054352;28;20126;-75
2023/02/24 07:13:39;;;;;;;24.87;4.43;;;;;;;;;;5040205;28;20175;-75
2023/02/24 07:16:06;;;;;;;29.50;5.33;;;;;;;;;;5036435;28;20116;-75
2023/02/24 07:18:39;;;;;;;25.73;4.17;;;;;;;;;;5045905;28;20035;-75
2023/02/24 07:21:10;;;;;;;27.57;5.60;;;;;;;;;;5055327;28;20028;-75
2023/02/24 07:23:37;;;;;;;33.10;4.60;;;;;;;;;;5053380;28;20469;-75
2023/02/24 07:26:08;;;;;;;22.93;4.60;;;;;;;;;;5054374;28;20040;-76
2023/02/24 07:28:35;;;;;;;26.45;3.55;;;;;;;;;;5055551;28;20021;-76
2023/02/24 07:31:04;;;;;;;30.80;3.97;;;;;;;;;;5036173;28;20032;-75
2023/02/24 07:33:33;;;;;;;27.27;5.00;;;;;;;;;;5035376;28;20043;-75
2023/02/24 07:35:59;;;;;;;24.90;4.47;;;;;;;;;;5045346;28;20031;-75
2023/02/24 07:38:25;;;;;;;28.43;5.37;;;;;;;;;;5040862;28;20021;-75
2023/02/24 07:40:51;;;;;;;23.30;4.43;;;;;;;;;;5054481;28;20124;-75
2023/02/24 07:43:18;;;;;;;19.63;3.87;;;;;;;;;;5046359;28;20182;-75
2023/02/24 07:45:46;;;;;;;25.43;4.80;;;;;;;;;;5037031;28;20089;-74
2023/02/24 07:48:13;;;;;;;30.13;4.60;;;;;;;;;;5039237;28;20596;-75
2023/02/24 07:50:40;;;;;;;14.33;3.60;;;;;;;;;;5053690;28;21582;-76
2023/02/24 07:53:08;;;;;;;29.17;4.50;;;;;;;;;;5044896;28;21032;-75
2023/02/24 07:55:37;;;;;;;18.77;3.83;;;;;;;;;;5053573;28;20074;-75
2023/02/24 07:58:04;;;;;;;34.53;7.33;;;;;;;;;;5046105;28;20559;-74
2023/02/24 08:00:48;;;;;;;28.67;4.07;;;;;;;;;;5054613;28;20054;-75
2023/02/24 08:03:14;;;;;;;24.00;4.67;;;;;;;;;;5038139;28;20059;-75
2023/02/24 08:05:42;;;;;;;29.13;5.17;;;;;;;;;;5054497;28;20342;-75
2023/02/24 08:08:08;;;;;;;26.73;4.60;;;;;;;;;;5053652;28;20101;-75
2023/02/24 08:10:40;;;;;;;21.37;4.63;;;;;;;;;;5052671;28;20109;-76
2023/02/24 08:13:10;;;;;;;26.50;4.90;;;;;;;;;;5046346;28;20036;-76
2023/02/24 08:15:36;;;;;;;20.80;5.27;;;;;;;;;;5052793;28;20029;-76
2023/02/24 08:18:02;;;;;;;26.83;5.27;;;;;;;;;;5040667;28;20112;-75
2023/02/24 08:20:51;;;;;;;24.77;5.40;;;;;;;;;;5042639;28;20071;-76
2023/02/24 08:23:17;;;;;;;24.80;4.70;;;;;;;;;;5057179;28;20083;-76
2023/02/24 08:25:43;;;;;;;27.90;5.33;;;;;;;;;;5057456;28;20029;-76
2023/02/24 08:28:10;;;;;;;24.93;4.53;;;;;;;;;;5047841;28;20041;-76
2023/02/24 08:30:38;;;;;;;19.63;5.60;;;;;;;;;;5039174;28;20068;-74
2023/02/24 08:33:06;;;;;;;27.30;7.60;;;;;;;;;;5047103;28;20025;-75
2023/02/24 08:35:36;;;;;;;33.13;5.77;;;;;;;;;;5043152;28;20020;-76
2023/02/24 08:38:04;;;;;;;31.73;6.07;;;;;;;;;;5059394;28;20051;-76
2023/02/24 08:43:16;;;;;;;20.53;5.47;;;;;;;;;;5067228;28;20100;-76
2023/02/24 08:45:49;;;;;;;24.63;5.93;;;;;;;;;;5062292;28;20029;-76
2023/02/24 08:48:29;;;;;;;28.93;7.43;;;;;;;;;;5048327;28;20041;-76
2023/02/24 08:50:59;;;;;;;22.77;7.13;;;;;;;;;;5060372;28;20039;-76
2023/02/24 08:53:30;;;;;;;26.10;7.60;;;;;;;;;;5042862;28;20093;-76
2023/02/24 08:55:56;;;;;;;32.87;7.03;;;;;;;;;;5067168;28;20029;-76
2023/02/24 08:58:25;;;;;;;32.63;7.97;;;;;;;;;;5052824;28;20040;-77
2023/02/24 09:00:57;;;;;;;28.67;6.73;;;;;;;;;;5048047;28;20048;-76
2023/02/24 09:03:32;;;;;;;33.45;7.15;;;;;;;;;;5053833;28;20032;-76
2023/02/24 09:05:58;;;;;;;26.77;6.77;;;;;;;;;;5046724;28;20029;-76
2023/02/24 09:08:31;;;;;;;33.47;6.93;;;;;;;;;;5047136;28;20411;-76
2023/02/24 09:10:58;;;;;;;23.47;4.70;;;;;;;;;;5068724;28;20019;-76
2023/02/24 09:13:31;;;;;;;21.97;4.83;;;;;;;;;;5071564;28;20090;-76
2023/02/24 09:15:57;;;;;;;20.30;3.67;;;;;;;;;;5047439;28;20332;-76
2023/02/24 09:18:37;;;;;;;17.77;4.50;;;;;;;;;;5056266;28;20098;-76
2023/02/24 09:23:51;;;;;;;18.20;3.73;;;;;;;;;;5064603;28;20040;-75
2023/02/24 09:26:19;;;;;;;29.90;6.07;;;;;;;;;;5063820;28;20364;-76
2023/02/24 09:28:53;;;;;;;19.13;4.37;;;;;;;;;;5047718;28;20082;-76
2023/02/24 09:31:39;;;;;;;13.43;3.23;;;;;;;;;;5053928;28;20044;-76
2023/02/24 09:34:09;;;;;;;20.13;3.33;;;;;;;;;;5049898;28;20024;-75
2023/02/24 09:36:43;;;;;;;18.77;2.83;;;;;;;;;;5074536;28;20020;-75
2023/02/24 09:39:13;;;;;;;18.73;3.13;;;;;;;;;;5049393;28;20059;-76
2023/02/24 09:44:39;;;;;;;18.90;4.07;;;;;;;;;;5075151;28;20064;-77
2023/02/24 09:47:50;;;;;;;19.93;3.53;;;;;;;;;;5054099;28;20094;-76
2023/02/24 09:50:36;;;;;;;9.40;2.50;;;;;;;;;;4976378;28;20375;-76
2023/02/24 09:53:12;;;;;;;18.43;4.20;;;;;;;;;;4990642;28;20030;-75
2023/02/24 09:56:08;;;;;;;13.47;2.93;;;;;;;;;;4973171;28;20049;-76
2023/02/24 09:58:48;;;;;;;13.83;3.33;;;;;;;;;;4991474;28;20038;-76
2023/02/24 10:01:31;;;;;;;14.10;4.33;;;;;;;;;;4977148;28;20146;-76
2023/02/24 10:04:21;;;;;;;17.33;4.37;;;;;;;;;;4991468;28;20111;-76
2023/02/24 10:06:47;;;;;;;21.83;5.07;;;;;;;;;;4972524;28;20058;-76
2023/02/24 10:09:42;;;;;;;20.90;4.90;;;;;;;;;;4978982;28;20076;-75
2023/02/24 10:12:10;;;;;;;15.90;4.53;;;;;;;;;;4991899;28;20042;-75
2023/02/24 10:14:52;;;;;;;15.30;4.80;;;;;;;;;;4974670;28;20034;-76
2023/02/24 10:17:23;;;;;;;14.30;4.25;;;;;;;;;;4973414;28;20352;-76
2023/02/24 10:20:12;;;;;;;17.77;4.97;;;;;;;;;;4964386;28;20035;-77
2023/02/24 10:22:55;;;;;;;16.97;4.50;;;;;;;;;;4983787;28;20099;-74
2023/02/24 10:25:26;;;;;;;16.58;5.15;;;;;;;;;;4958702;28;20463;-75
2023/02/24 10:28:10;;;;;;;13.23;4.80;;;;;;;;;;5029762;28;20173;-76
2023/02/24 10:31:02;;;;;;;12.80;4.67;;;;;;;;;;5039978;28;20041;-75
2023/02/24 10:33:37;;;;;;;22.30;5.70;;;;;;;;;;5045021;28;20043;-76
2023/02/24 10:36:16;;;;;;;11.77;4.23;;;;;;;;;;5048584;28;20029;-75
2023/02/24 10:38:44;;;;;;;15.43;5.27;;;;;;;;;;5035843;28;20532;-76
2023/02/24 10:41:10;;;;;;;13.13;5.40;;;;;;;;;;5041675;28;20080;-75
2023/02/24 10:43:44;;;;;;;13.30;4.30;;;;;;;;;;5053554;28;20528;-76
2023/02/24 10:46:18;;;;;;;18.97;5.10;;;;;;;;;;5041337;28;20024;-76
2023/02/24 10:48:59;;;;;;;15.43;5.27;;;;;;;;;;5036821;28;20033;-76
2023/02/24 10:51:46;;;;;;;15.87;5.73;;;;;;;;;;5053015;28;20099;-74
2023/02/24 10:54:53;;;;;;;18.90;4.83;;;;;;;;;;5054226;28;20051;-76
2023/02/24 10:57:35;;;;;;;15.87;5.13;;;;;;;;;;5054329;28;20216;-76
2023/02/24 11:03:07;;;;;;;12.07;4.60;;;;;;;;;;5054673;28;20438;-76
2023/02/24 11:08:38;;;;;;;13.23;4.17;;;;;;;;;;5056062;28;20040;-74
2023/02/24 11:11:28;;;;;;;19.97;5.13;;;;;;;;;;5055387;28;20361;-75
2023/02/24 11:17:27;;;;;;;17.97;5.13;;;;;;;;;;5054821;28;20157;-76
2023/02/24 11:19:41;;;;;;;27.07;5.33;;;;;;;;;;5053266;28;20040;-75
2023/02/24 11:22:07;;;;;;;16.60;4.53;;;;;;;;;;5039510;28;20501;-75
2023/02/24 11:24:36;;;;;;;14.03;5.37;;;;;;;;;;5055083;28;20043;-75
2023/02/24 11:27:02;;;;;;;18.10;4.50;;;;;;;;;;5054234;28;20037;-75
2023/02/24 11:29:37;;;;;;;17.00;4.53;;;;;;;;;;5036968;28;20040;-78
2023/02/24 11:32:12;;;;;;;12.17;3.57;;;;;;;;;;5047084;28;20029;-77
2023/02/24 11:35:04;;;;;;;10.73;4.23;;;;;;;;;;5053526;28;20045;-75
2023/02/24 11:37:45;;;;;;;12.43;3.63;;;;;;;;;;5037350;28;20051;-75
2023/02/24 11:40:12;;;;;;;17.87;4.00;;;;;;;;;;5053040;28;20115;-74
2023/02/24 11:42:42;;;;;;;16.80;3.47;;;;;;;;;;5039812;28;20452;-76
2023/02/24 11:45:21;;;;;;;16.13;4.23;;;;;;;;;;5053575;28;20064;-76
2023/02/24 11:47:56;;;;;;;19.40;3.83;;;;;;;;;;5050809;28;20033;-76
2023/02/24 11:50:29;;;;;;;18.73;4.40;;;;;;;;;;5041577;28;20064;-77
2023/02/24 11:52:55;;;;;;;;;;;;;;;;;;5045965;28;20021;-76
2023/02/24 11:55:34;;;;;;;12.70;4.00;;;;;;;;;;5041048;28;20339;-76
2023/02/24 11:58:02;;;;;;;23.50;4.37;;;;;;;;;;5043361;28;20112;-75
2023/02/24 12:00:32;;;;;;;27.47;6.47;;;;;;;;;;5058654;28;20650;-76
2023/02/24 12:03:04;;;;;;;21.03;5.77;;;;;;;;;;5050338;28;20024;-75
2023/02/24 12:05:37;;;;;;;18.20;4.47;;;;;;;;;;5044642;28;20178;-76
2023/02/24 12:08:09;;;;;;;16.23;3.87;;;;;;;;;;5056863;28;20051;-75
2023/02/24 12:10:37;;;;;;;13.20;4.47;;;;;;;;;;5047294;28;20044;-75
2023/02/24 12:13:07;;;;;;;14.63;4.27;;;;;;;;;;5038087;28;20025;-75
2023/02/24 12:15:34;;;;;;;12.97;4.67;;;;;;;;;;5041844;28;20032;-75
2023/02/24 12:18:29;;;;;;;19.20;3.60;;;;;;;;;;5059238;28;20028;-76
2023/02/24 12:21:14;;;;;;;15.33;4.43;;;;;;;;;;5019791;28;20102;-76
2023/02/24 12:23:42;;;;;;;11.50;4.33;;;;;;;;;;5057597;28;20033;-76
2023/02/24 12:26:20;;;;;;;17.40;4.47;;;;;;;;;;5059336;28;20033;-75
2023/02/24 12:28:50;;;;;;;16.97;5.03;;;;;;;;;;5056833;28;20071;-76
2023/02/24 12:31:18;;;;;;;19.87;5.70;;;;;;;;;;5047403;28;20040;-76
2023/02/24 12:33:48;;;;;;;16.63;5.40;;;;;;;;;;5055844;28;20120;-76
2023/02/24 12:36:23;;;;;;;20.87;4.93;;;;;;;;;;5055325;28;20033;-76
2023/02/24 12:39:05;;;;;;;24.10;5.40;;;;;;;;;;5059558;28;20063;-76
2023/02/24 12:41:43;;;;;;;15.90;5.53;;;;;;;;;;5057361;28;20050;-76
2023/02/24 12:44:38;;;;;;;13.73;4.67;;;;;;;;;;5058198;28;20082;-77
2023/02/24 12:47:06;;;;;;;13.03;4.97;;;;;;;;;;5038569;28;20112;-76
2023/02/24 12:49:41;;;;;;;18.90;6.47;;;;;;;;;;5049753;28;20079;-76
2023/02/24 12:52:28;;;;;;;23.30;6.10;;;;;;;;;;5048992;28;20067;-76
2023/02/24 12:55:13;;;;;;;24.67;5.50;;;;;;;;;;5057455;28;20025;-76
2023/02/24 12:57:51;;;;;;;20.93;6.43;;;;;;;;;;5048970;28;20105;-76
2023/02/24 13:00:30;;;;;;;18.70;5.40;;;;;;;;;;5038059;28;20348;-76
2023/02/24 13:03:11;;;;;;;19.33;5.80;;;;;;;;;;5039721;28;20029;-76
2023/02/24 13:05:42;;;;;;;24.87;6.23;;;;;;;;;;5056955;28;20040;-76
2023/02/24 13:08:11;;;;;;;20.57;6.37;;;;;;;;;;5045656;28;20036;-76
2023/02/24 13:10:37;;;;;;;23.07;7.17;;;;;;;;;;5057557;28;20037;-76
2023/02/24 13:13:24;;;;;;;23.97;6.83;;;;;;;;;;5056156;28;20039;-76
2023/02/24 13:15:51;;;;;;;19.60;6.47;;;;;;;;;;5040047;28;20095;-75
2023/02/24 13:18:28;;;;;;;19.20;7.20;;;;;;;;;;5039752;28;20068;-76
2023/02/24 13:21:25;;;;;;;22.90;6.27;;;;;;;;;;5057670;28;20444;-75
2023/02/24 13:23:53;;;;;;;24.90;7.47;;;;;;;;;;5028734;28;20115;-76
2023/02/24 13:26:27;;;;;;;22.83;7.00;;;;;;;;;;5058215;28;20036;-75
2023/02/24 13:28:59;;;;;;;19.10;5.60;;;;;;;;;;5039833;28;20047;-76
2023/02/24 13:31:25;;;;;;;19.60;5.57;;;;;;;;;;5057218;28;20043;-75
2023/02/24 13:33:51;;;;;;;21.93;6.80;;;;;;;;;;5057679;28;20061;-75
2023/02/24 13:36:24;;;;;;;17.93;7.03;;;;;;;;;;5039614;28;20469;-76
2023/02/24 13:39:05;;;;;;;14.30;5.40;;;;;;;;;;5058429;28;20032;-76
2023/02/24 13:41:31;;;;;;;32.10;7.00;;;;;;;;;;5043667;28;20048;-76
2023/02/24 13:43:57;;;;;;;23.27;6.17;;;;;;;;;;5055191;28;20065;-76
2023/02/24 13:46:23;;;;;;;19.03;5.83;;;;;;;;;;5048566;28;20115;-76
2023/02/24 13:48:57;;;;;;;24.53;6.40;;;;;;;;;;5056232;28;20762;-75
2023/02/24 13:51:35;;;;;;;23.33;7.67;;;;;;;;;;5055241;28;20534;-76
2023/02/24 13:54:20;;;;;;;20.07;5.87;;;;;;;;;;5049719;28;20056;-74
2023/02/24 13:57:03;;;;;;;20.57;6.40;;;;;;;;;;5054568;28;20882;-75
2023/02/24 13:59:29;;;;;;;20.65;5.30;;;;;;;;;;5047273;28;20025;-76
2023/02/24 14:01:59;;;;;;;22.47;5.77;;;;;;;;;;5058434;28;20040;-75
2023/02/24 14:04:26;;;;;;;26.03;5.80;;;;;;;;;;5058118;28;20033;-75
2023/02/24 14:06:54;;;;;;;21.23;5.30;;;;;;;;;;5038488;28;20040;-75
2023/02/24 14:09:36;;;;;;;16.60;4.77;;;;;;;;;;5023700;28;20119;-74
2023/02/24 14:12:13;;;;;;;17.93;6.13;;;;;;;;;;5046821;28;20037;-75
2023/02/24 14:14:40;;;;;;;15.73;5.07;;;;;;;;;;5043192;28;20033;-74
2023/02/24 14:17:05;;;;;;;15.73;5.70;;;;;;;;;;5053232;28;20033;-73
2023/02/24 14:19:31;;;;;;;20.03;5.27;;;;;;;;;;5046513;28;20028;-75
2023/02/24 14:21:58;;;;;;;17.23;5.47;;;;;;;;;;5056373;28;20037;-75
2023/02/24 14:24:26;;;;;;;18.53;4.97;;;;;;;;;;5046051;28;20754;-75
2023/02/24 14:26:54;;;;;;;18.97;5.40;;;;;;;;;;5055809;28;20123;-75
2023/02/24 14:29:33;;;;;;;14.60;5.23;;;;;;;;;;5054461;28;20037;-75
2023/02/24 14:32:01;;;;;;;17.13;5.37;;;;;;;;;;5043251;28;20040;-75
2023/02/24 14:34:33;;;;;;;24.37;5.60;;;;;;;;;;5053707;28;20029;-74
2023/02/24 14:37:01;;;;;;;16.45;4.95;;;;;;;;;;5056256;28;20056;-76
2023/02/24 14:39:31;;;;;;;19.53;5.17;;;;;;;;;;5048062;28;20115;-73
2023/02/24 14:42:10;;;;;;;21.67;5.97;;;;;;;;;;5056872;28;20021;-75
2023/02/24 14:44:41;;;;;;;12.83;5.00;;;;;;;;;;5074544;28;20029;-75
2023/02/24 14:47:09;;;;;;;18.30;5.73;;;;;;;;;;5061173;28;20096;-74
2023/02/24 14:49:35;;;;;;;16.10;5.07;;;;;;;;;;5079198;28;20437;-76
2023/02/24 14:52:16;;;;;;;29.70;6.00;;;;;;;;;;5057354;28;20028;-77
2023/02/24 14:54:48;;;;;;;18.97;5.60;;;;;;;;;;5074364;28;20078;-75
2023/02/24 14:57:17;;;;;;;24.93;6.60;;;;;;;;;;5042217;28;20441;-74
2023/02/24 14:59:47;;;;;;;20.37;6.00;;;;;;;;;;5063800;28;20031;-78
2023/02/24 15:02:15;;;;;;;13.63;5.70;;;;;;;;;;5054233;28;20356;-74
2023/02/24 15:04:43;;;;;;;18.67;4.97;;;;;;;;;;5073382;28;20029;-77
2023/02/24 15:07:21;;;;;;;18.60;6.00;;;;;;;;;;5056365;28;20032;-75
2023/02/24 15:09:48;;;;;;;19.63;6.23;;;;;;;;;;5053030;28;20033;-76
2023/02/24 15:12:20;;;;;;;18.67;5.93;;;;;;;;;;5056403;28;20032;-76